Time;durP1;ratioP1;P1;durP2;ratioP2;P2;SDS_P1;SDS_P2;PMS_P1;PMS_P2;Temp;Humidity;BMP_temperature;BMP_pressure;BME280_temperature;BME280_humidity;BME280_pressure;Samples;Min_cycle;Max_cycle;Signal;HPM_P1;HPM_P2
2022/11/13 00:00:57;;;;;;;20.40;15.80;;;6.30;99.90;;;;;;5013613;28;20513;-62
2022/11/13 00:03:23;;;;;;;24.48;17.30;;;6.30;99.90;;;;;;5031349;28;20137;-62
2022/11/13 00:05:58;;;;;;;21.38;16.52;;;6.30;99.90;;;;;;5013177;28;20124;-62
2022/11/13 00:08:24;;;;;;;21.77;16.83;;;6.40;99.90;;;;;;5013691;28;20148;-62
2022/11/13 00:10:49;;;;;;;23.00;16.88;;;6.30;99.90;;;;;;5013121;28;20045;-62
2022/11/13 00:13:15;;;;;;;24.98;18.60;;;6.30;99.90;;;;;;5013720;28;20487;-62
2022/11/13 00:15:41;;;;;;;21.10;16.23;;;6.30;99.90;;;;;;5013843;28;20045;-62
2022/11/13 00:18:06;;;;;;;22.73;16.85;;;6.40;99.90;;;;;;5030612;28;20041;-62
2022/11/13 00:20:32;;;;;;;23.50;17.08;;;6.30;99.90;;;;;;5033584;28;20091;-62
2022/11/13 00:22:58;;;;;;;21.42;17.02;;;6.30;99.90;;;;;;5017529;28;20077;-62
2022/11/13 00:25:23;;;;;;;24.30;18.67;;;6.30;99.90;;;;;;5016810;28;20540;-62
2022/11/13 00:27:49;;;;;;;21.45;17.52;;;6.30;99.90;;;;;;5034998;28;20041;-62
2022/11/13 00:30:15;;;;;;;26.42;17.73;;;6.30;99.90;;;;;;5034848;28;20045;-62
2022/11/13 00:32:40;;;;;;;25.83;18.42;;;6.30;99.90;;;;;;5016471;28;20057;-62
2022/11/13 00:35:06;;;;;;;21.80;18.08;;;6.30;99.90;;;;;;5034771;28;20041;-62
2022/11/13 00:37:32;;;;;;;24.65;16.92;;;6.40;99.90;;;;;;5017005;28;20038;-61
2022/11/13 00:39:57;;;;;;;22.25;16.58;;;6.40;99.90;;;;;;5016164;28;20048;-62
2022/11/13 00:42:23;;;;;;;21.70;16.30;;;6.40;99.90;;;;;;5017142;28;20042;-62
2022/11/13 00:44:49;;;;;;;19.58;15.73;;;6.50;99.90;;;;;;5034430;28;20240;-62
2022/11/13 00:47:14;;;;;;;23.10;17.75;;;6.50;99.90;;;;;;5016099;28;20119;-62
2022/11/13 00:49:40;;;;;;;22.40;16.90;;;6.50;99.90;;;;;;5017035;28;20094;-62
2022/11/13 00:52:06;;;;;;;20.45;17.02;;;6.50;99.90;;;;;;5016921;28;20041;-62
2022/11/13 00:54:32;;;;;;;28.48;18.13;;;6.50;99.90;;;;;;5015990;28;20045;-62
2022/11/13 00:56:57;;;;;;;23.15;18.23;;;6.50;99.90;;;;;;5034602;28;20029;-61
2022/11/13 00:59:23;;;;;;;24.48;17.58;;;6.50;99.90;;;;;;5016656;28;20041;-62
2022/11/13 01:01:48;;;;;;;26.02;17.30;;;6.50;99.90;;;;;;5016111;28;20099;-62
2022/11/13 01:04:14;;;;;;;23.17;19.25;;;6.50;99.90;;;;;;5016707;28;20463;-62
2022/11/13 01:06:40;;;;;;;22.50;17.63;;;6.50;99.90;;;;;;5000744;28;20410;-62
2022/11/13 01:09:05;;;;;;;23.48;17.70;;;6.60;99.90;;;;;;5015962;28;20045;-62
2022/11/13 01:11:31;;;;;;;22.33;17.20;;;6.60;99.90;;;;;;5016476;28;20037;-62
2022/11/13 01:13:57;;;;;;;27.05;18.23;;;6.60;99.90;;;;;;5015800;28;20041;-62
2022/11/13 01:16:25;;;;;;;22.38;17.80;;;6.60;99.90;;;;;;4999910;28;20045;-62
2022/11/13 01:18:54;;;;;;;24.77;19.17;;;6.60;99.90;;;;;;5034249;28;20432;-61
2022/11/13 01:21:26;;;;;;;25.27;18.92;;;6.60;99.90;;;;;;5015357;28;20048;-62
2022/11/13 01:23:53;;;;;;;23.00;16.70;;;6.70;99.90;;;;;;5016121;28;20087;-62
2022/11/13 01:26:24;;;;;;;22.77;17.30;;;6.70;99.90;;;;;;5033855;28;20053;-62
2022/11/13 01:28:50;;;;;;;22.52;18.27;;;6.70;99.90;;;;;;5015106;28;20080;-62
2022/11/13 01:31:19;;;;;;;24.67;18.05;;;6.60;99.90;;;;;;5015845;28;20092;-62
2022/11/13 01:33:46;;;;;;;22.25;17.42;;;6.60;99.90;;;;;;5035266;28;20060;-62
2022/11/13 01:36:15;;;;;;;23.73;17.90;;;6.60;99.90;;;;;;5035107;28;20391;-61
2022/11/13 01:38:41;;;;;;;21.50;18.05;;;6.60;99.90;;;;;;5035996;28;20041;-62
2022/11/13 01:41:11;;;;;;;20.80;17.52;;;6.60;99.90;;;;;;5035946;28;20048;-62
2022/11/13 01:43:37;;;;;;;21.90;18.40;;;6.60;99.90;;;;;;5034752;28;20083;-62
2022/11/13 01:46:23;;;;;;;23.75;18.60;;;6.60;99.90;;;;;;5035416;28;20056;-61
2022/11/13 01:48:56;;;;;;;25.73;19.60;;;6.60;99.90;;;;;;5019135;28;20123;-62
2022/11/13 01:51:28;;;;;;;25.27;19.23;;;6.60;99.90;;;;;;5034640;28;20060;-61
2022/11/13 01:53:56;;;;;;;20.75;16.63;;;6.60;99.90;;;;;;5053290;28;20178;-62
2022/11/13 01:56:22;;;;;;;22.52;17.38;;;6.60;99.90;;;;;;5034462;28;20566;-62
2022/11/13 01:58:56;;;;;;;23.60;17.13;;;6.60;99.90;;;;;;5035190;28;20116;-62
2022/11/13 02:01:21;;;;;;;19.73;17.48;;;6.60;99.90;;;;;;5035257;28;20394;-62
2022/11/13 02:03:47;;;;;;;27.40;21.35;;;6.50;99.90;;;;;;5052256;28;20049;-62
2022/11/13 02:06:13;;;;;;;24.85;19.85;;;6.50;99.90;;;;;;5035363;28;20528;-62
2022/11/13 02:08:39;;;;;;;25.35;19.85;;;6.50;99.90;;;;;;5035780;28;20044;-62
2022/11/13 02:11:05;;;;;;;26.27;21.17;;;6.50;99.90;;;;;;5017759;28;20051;-62
2022/11/13 02:13:32;;;;;;;25.30;19.77;;;6.50;99.90;;;;;;5034870;28;20119;-62
2022/11/13 02:15:58;;;;;;;28.17;22.42;;;6.50;99.90;;;;;;5052659;28;20128;-62
2022/11/13 02:18:26;;;;;;;29.75;21.90;;;6.50;99.90;;;;;;5033823;28;20131;-62
2022/11/13 02:21:22;;;;;;;29.30;21.50;;;6.50;99.90;;;;;;5035015;28;20574;-62
2022/11/13 02:23:59;;;;;;;24.85;20.25;;;6.50;99.90;;;;;;5052740;28;20037;-62
2022/11/13 02:26:26;;;;;;;27.42;21.83;;;6.50;99.90;;;;;;5051716;28;20424;-62
2022/11/13 02:28:52;;;;;;;26.02;21.00;;;6.50;99.90;;;;;;5018203;28;20119;-62
2022/11/13 02:31:17;;;;;;;27.95;21.08;;;6.50;99.90;;;;;;5052084;28;20148;-62
2022/11/13 02:33:43;;;;;;;26.27;20.38;;;6.50;99.90;;;;;;5014943;28;20409;-62
2022/11/13 02:36:10;;;;;;;26.63;20.67;;;6.40;99.90;;;;;;5015149;28;20084;-62
2022/11/13 02:38:39;;;;;;;24.23;20.08;;;6.50;99.90;;;;;;5031533;28;20088;-62
2022/11/13 02:41:05;;;;;;;22.70;18.77;;;6.50;99.90;;;;;;5014517;28;20056;-62
2022/11/13 02:43:30;;;;;;;25.65;20.33;;;6.50;99.90;;;;;;5013936;28;20402;-62
2022/11/13 02:45:56;;;;;;;24.42;19.63;;;6.40;99.90;;;;;;5031504;28;20044;-62
2022/11/13 02:48:22;;;;;;;23.95;19.42;;;6.50;99.90;;;;;;4998126;28;20034;-62
2022/11/13 02:50:47;;;;;;;24.63;19.45;;;6.50;99.90;;;;;;5014783;28;20037;-62
2022/11/13 02:53:13;;;;;;;23.60;18.48;;;6.50;99.90;;;;;;4997597;28;20405;-61
2022/11/13 02:55:39;;;;;;;24.20;19.17;;;6.40;99.90;;;;;;5032436;28;20033;-62
2022/11/13 02:58:04;;;;;;;23.27;18.27;;;6.50;99.90;;;;;;5014505;28;20099;-62
2022/11/13 03:00:30;;;;;;;25.83;20.10;;;6.40;99.90;;;;;;5013918;28;20478;-62
2022/11/13 03:02:56;;;;;;;27.13;19.02;;;6.40;99.90;;;;;;5014107;28;20040;-62
2022/11/13 03:05:22;;;;;;;26.13;19.25;;;6.40;99.90;;;;;;5032263;28;20117;-62
2022/11/13 03:07:47;;;;;;;26.70;20.45;;;6.50;99.90;;;;;;5013557;28;20044;-62
2022/11/13 03:10:13;;;;;;;22.70;18.55;;;6.50;99.90;;;;;;5014450;28;20045;-62
2022/11/13 03:12:39;;;;;;;25.35;18.33;;;6.50;99.90;;;;;;5014494;28;20042;-62
2022/11/13 03:15:06;;;;;;;23.77;19.10;;;6.50;99.90;;;;;;5013530;28;20046;-62
2022/11/13 03:17:32;;;;;;;25.08;19.33;;;6.50;99.90;;;;;;5014133;28;20141;-62
2022/11/13 03:19:59;;;;;;;25.60;20.15;;;6.50;99.90;;;;;;5013969;28;20042;-62
2022/11/13 03:22:25;;;;;;;23.35;18.35;;;6.50;99.90;;;;;;5031116;28;20114;-62
2022/11/13 03:24:51;;;;;;;25.40;20.27;;;6.50;99.90;;;;;;4997656;28;20049;-62
2022/11/13 03:27:16;;;;;;;23.23;18.52;;;6.50;99.90;;;;;;5014148;28;20045;-62
2022/11/13 03:29:42;;;;;;;22.58;17.10;;;6.60;99.90;;;;;;5013348;28;20410;-62
2022/11/13 03:32:07;;;;;;;26.90;19.48;;;6.50;99.90;;;;;;5020344;28;20057;-62
2022/11/13 03:34:33;;;;;;;22.65;17.40;;;6.60;99.90;;;;;;5033746;28;20049;-62
2022/11/13 03:36:59;;;;;;;22.48;17.70;;;6.60;99.90;;;;;;5051115;28;20041;-62
2022/11/13 03:39:24;;;;;;;25.65;18.50;;;6.60;99.90;;;;;;5033443;28;20044;-62
2022/11/13 03:41:50;;;;;;;25.20;19.35;;;6.50;99.90;;;;;;5032808;28;20087;-62
2022/11/13 03:44:16;;;;;;;26.98;18.35;;;6.50;99.90;;;;;;5033866;28;20045;-62
2022/11/13 03:46:41;;;;;;;22.58;17.77;;;6.50;99.90;;;;;;5033945;28;20048;-62
2022/11/13 03:49:07;;;;;;;24.88;20.52;;;6.60;99.90;;;;;;5033291;28;20132;-62
2022/11/13 03:51:33;;;;;;;26.23;20.85;;;6.60;99.90;;;;;;5033477;28;20048;-62
2022/11/13 03:53:59;;;;;;;25.60;19.05;;;6.60;99.90;;;;;;5053072;28;20036;-62
2022/11/13 03:56:25;;;;;;;27.45;19.48;;;6.60;99.90;;;;;;5036953;28;20049;-62
2022/11/13 03:58:50;;;;;;;27.27;19.73;;;6.60;99.90;;;;;;5055375;28;20033;-62
2022/11/13 04:01:16;;;;;;;26.45;21.10;;;6.60;99.90;;;;;;5037479;28;20033;-62
2022/11/13 04:03:42;;;;;;;26.55;20.52;;;6.60;99.90;;;;;;5036748;28;20123;-62
2022/11/13 04:06:08;;;;;;;26.73;20.88;;;6.60;99.90;;;;;;5038096;28;20048;-62
2022/11/13 04:08:34;;;;;;;29.48;21.40;;;6.60;99.90;;;;;;5055301;28;20057;-62
2022/11/13 04:11:11;;;;;;;27.38;20.80;;;6.60;99.90;;;;;;5036648;28;20045;-62
2022/11/13 04:13:37;;;;;;;28.45;22.10;;;6.70;99.90;;;;;;5021073;28;20036;-62
2022/11/13 04:16:04;;;;;;;25.02;20.35;;;6.70;99.90;;;;;;5054939;28;20124;-62
2022/11/13 04:18:29;;;;;;;25.50;20.45;;;6.60;99.90;;;;;;5036403;28;20052;-62
2022/11/13 04:21:03;;;;;;;23.58;20.02;;;6.70;99.90;;;;;;5037424;28;20036;-62
2022/11/13 04:23:28;;;;;;;25.75;20.00;;;6.70;99.90;;;;;;5037394;28;20430;-62
2022/11/13 04:25:54;;;;;;;25.83;19.63;;;6.70;99.90;;;;;;5036377;28;20174;-62
2022/11/13 04:28:20;;;;;;;25.73;20.08;;;6.70;99.90;;;;;;5054754;28;20066;-61
2022/11/13 04:30:46;;;;;;;27.05;20.63;;;6.80;99.90;;;;;;5037036;28;20120;-62
2022/11/13 04:33:12;;;;;;;25.77;20.10;;;6.80;99.90;;;;;;5054224;28;20053;-62
2022/11/13 04:35:37;;;;;;;26.15;20.60;;;6.80;99.90;;;;;;5036942;28;20055;-62
2022/11/13 04:38:03;;;;;;;24.13;19.17;;;6.80;99.90;;;;;;5035872;28;20041;-62
2022/11/13 04:40:29;;;;;;;25.33;19.35;;;6.80;99.90;;;;;;5054752;28;20037;-62
2022/11/13 04:42:54;;;;;;;26.45;19.45;;;6.80;99.90;;;;;;5036851;28;20044;-62
2022/11/13 04:45:23;;;;;;;25.15;18.23;;;6.80;99.90;;;;;;5019572;28;20102;-62
2022/11/13 04:47:50;;;;;;;28.55;20.08;;;6.80;99.90;;;;;;5020218;28;20036;-62
2022/11/13 04:50:16;;;;;;;26.73;18.10;;;6.80;99.90;;;;;;5036613;28;20428;-62
2022/11/13 04:52:42;;;;;;;25.00;18.75;;;6.80;99.90;;;;;;5053733;28;20120;-62
2022/11/13 04:55:09;;;;;;;25.08;18.33;;;6.80;99.90;;;;;;5037000;28;20044;-62
2022/11/13 04:57:35;;;;;;;24.13;17.63;;;6.80;99.90;;;;;;5036629;28;20045;-62
2022/11/13 05:00:01;;;;;;;23.65;18.10;;;6.90;99.90;;;;;;5053639;28;20041;-62
2022/11/13 05:02:27;;;;;;;22.73;18.08;;;6.90;99.90;;;;;;5036654;28;20095;-62
2022/11/13 05:04:52;;;;;;;25.35;19.33;;;6.90;99.90;;;;;;5053656;28;20040;-62
2022/11/13 05:07:18;;;;;;;24.98;16.85;;;6.90;99.90;;;;;;5019055;28;20052;-62
2022/11/13 05:09:44;;;;;;;25.00;17.67;;;6.90;99.90;;;;;;5054326;28;20117;-62
2022/11/13 05:12:09;;;;;;;24.83;18.70;;;6.90;99.90;;;;;;5036513;28;20453;-62
2022/11/13 05:14:37;;;;;;;24.92;18.95;;;6.90;99.90;;;;;;5035826;28;20095;-62
2022/11/13 05:17:04;;;;;;;22.75;17.70;;;6.90;99.90;;;;;;5036182;28;20045;-62
2022/11/13 05:19:32;;;;;;;24.60;18.77;;;6.90;99.90;;;;;;5035996;28;20094;-62
2022/11/13 05:21:58;;;;;;;21.90;16.65;;;6.80;99.90;;;;;;5035222;28;20098;-62
2022/11/13 05:24:24;;;;;;;23.60;18.05;;;6.90;99.90;;;;;;5036294;28;20044;-62
2022/11/13 05:26:50;;;;;;;21.40;16.02;;;6.80;99.90;;;;;;5036058;28;20045;-62
2022/11/13 05:29:16;;;;;;;28.08;17.60;;;6.80;99.90;;;;;;5035354;28;20104;-62
2022/11/13 05:31:42;;;;;;;21.95;17.20;;;6.80;99.90;;;;;;5035931;28;20916;-62
2022/11/13 05:34:07;;;;;;;23.27;17.98;;;6.80;99.90;;;;;;5054120;28;20072;-62
2022/11/13 05:36:33;;;;;;;22.05;17.25;;;6.80;99.90;;;;;;5053083;28;20120;-62
2022/11/13 05:38:59;;;;;;;26.83;17.27;;;6.80;99.90;;;;;;5035638;28;20033;-62
2022/11/13 05:41:25;;;;;;;24.23;18.38;;;6.80;99.90;;;;;;5034916;28;20112;-62
2022/11/13 05:43:51;;;;;;;22.98;17.35;;;6.80;99.90;;;;;;5035788;28;20041;-62
2022/11/13 05:46:19;;;;;;;24.10;18.13;;;6.70;99.90;;;;;;5035728;28;20033;-62
2022/11/13 05:48:45;;;;;;;26.58;18.63;;;6.70;99.90;;;;;;5034768;28;20437;-62
2022/11/13 05:51:15;;;;;;;27.38;19.67;;;6.70;99.90;;;;;;5035731;28;20045;-62
2022/11/13 05:53:41;;;;;;;29.55;19.00;;;6.70;99.90;;;;;;5053784;28;20068;-62
2022/11/13 05:56:09;;;;;;;24.63;18.00;;;6.70;99.90;;;;;;5052712;28;20456;-62
2022/11/13 05:58:35;;;;;;;22.55;17.13;;;6.70;99.90;;;;;;5053270;28;20076;-62
2022/11/13 06:01:10;;;;;;;23.08;17.83;;;6.70;99.90;;;;;;5035513;28;20118;-62
2022/11/13 06:03:36;;;;;;;;;;;6.70;99.90;;;;;;5034977;28;20051;-62
2022/11/13 06:06:02;;;;;;;26.27;21.40;;;6.60;99.90;;;;;;5053104;28;19946;-62
2022/11/13 06:08:28;;;;;;;33.38;25.08;;;6.60;99.90;;;;;;5035427;28;20037;-62
2022/11/13 06:11:02;;;;;;;22.48;20.00;;;6.60;99.90;;;;;;5052347;28;20037;-61
2022/11/13 06:13:27;;;;;;;22.58;17.23;;;6.60;99.90;;;;;;5035113;28;20045;-62
2022/11/13 06:15:54;;;;;;;22.38;16.45;;;6.60;99.90;;;;;;5034971;28;20047;-62
2022/11/13 06:18:23;;;;;;;30.50;25.13;;;6.60;99.90;;;;;;5032985;28;20393;-62
2022/11/13 06:20:49;;;;;;;25.30;19.30;;;6.60;99.90;;;;;;5052621;28;20039;-62
2022/11/13 06:23:15;;;;;;;34.35;25.08;;;6.60;99.90;;;;;;5018572;28;20032;-61
2022/11/13 06:25:41;;;;;;;68.28;47.55;;;6.60;99.90;;;;;;5052427;28;20113;-62
2022/11/13 06:28:07;;;;;;;53.17;39.25;;;6.50;99.90;;;;;;5018697;28;20072;-62
2022/11/13 06:30:33;;;;;;;32.92;25.73;;;6.50;99.90;;;;;;5051843;28;20595;-62
2022/11/13 06:32:58;;;;;;;30.83;21.13;;;6.50;99.90;;;;;;5018054;28;20049;-62
2022/11/13 06:35:24;;;;;;;22.35;17.90;;;6.50;99.90;;;;;;5034972;28;20041;-62
2022/11/13 06:37:50;;;;;;;23.50;17.20;;;6.50;99.90;;;;;;5034003;28;20104;-62
2022/11/13 06:40:15;;;;;;;30.60;23.52;;;6.50;99.90;;;;;;5034702;28;20504;-62
2022/11/13 06:42:41;;;;;;;24.65;21.27;;;6.50;99.90;;;;;;5018667;28;20433;-62
2022/11/13 06:45:07;;;;;;;24.90;20.98;;;6.50;99.90;;;;;;5034137;28;20119;-62
2022/11/13 06:47:33;;;;;;;25.13;20.30;;;6.50;99.90;;;;;;5034488;28;20170;-62
2022/11/13 06:49:58;;;;;;;24.92;19.13;;;6.50;99.90;;;;;;5052214;28;20116;-62
2022/11/13 06:52:24;;;;;;;21.80;17.30;;;6.50;99.90;;;;;;5017275;28;20044;-62
2022/11/13 06:54:50;;;;;;;26.70;18.67;;;6.50;99.90;;;;;;5034525;28;20044;-62
2022/11/13 06:57:15;;;;;;;26.90;20.77;;;6.50;99.90;;;;;;5034381;28;20041;-62
2022/11/13 06:59:42;;;;;;;27.83;22.08;;;6.60;99.90;;;;;;5033946;28;20068;-62
2022/11/13 07:02:10;;;;;;;27.27;20.60;;;6.50;99.90;;;;;;5052207;28;20509;-62
2022/11/13 07:04:36;;;;;;;30.92;22.95;;;6.60;99.90;;;;;;5034080;28;20044;-62
2022/11/13 07:07:03;;;;;;;24.02;17.88;;;6.60;99.90;;;;;;5033552;28;20158;-61
2022/11/13 07:09:29;;;;;;;23.30;17.02;;;6.60;99.90;;;;;;5017649;28;20067;-62
2022/11/13 07:11:54;;;;;;;27.05;20.65;;;6.50;99.90;;;;;;5052002;28;20098;-62
2022/11/13 07:14:25;;;;;;;23.35;18.85;;;6.50;99.90;;;;;;5033326;28;20044;-62
2022/11/13 07:16:51;;;;;;;31.10;20.45;;;6.50;99.90;;;;;;5051640;28;20080;-62
2022/11/13 07:19:16;;;;;;;23.60;18.00;;;6.50;99.90;;;;;;5051609;28;20083;-62
2022/11/13 07:21:42;;;;;;;36.08;23.77;;;6.50;99.90;;;;;;5051357;28;20116;-62
2022/11/13 07:24:08;;;;;;;34.47;24.35;;;6.50;99.90;;;;;;5034362;28;20397;-62
2022/11/13 07:26:33;;;;;;;29.20;22.13;;;6.50;99.90;;;;;;5034056;28;20059;-62
2022/11/13 07:28:59;;;;;;;23.73;17.48;;;6.50;99.90;;;;;;5032913;28;20041;-62
2022/11/13 07:31:24;;;;;;;22.30;17.58;;;6.50;99.90;;;;;;5033763;28;20095;-62
2022/11/13 07:33:51;;;;;;;21.55;17.42;;;6.60;99.90;;;;;;5050852;28;20555;-62
2022/11/13 07:36:17;;;;;;;20.90;15.77;;;6.60;99.90;;;;;;5033909;28;20041;-62
2022/11/13 07:38:42;;;;;;;22.75;15.40;;;6.60;99.90;;;;;;5033978;28;20106;-62
2022/11/13 07:41:08;;;;;;;21.60;15.35;;;6.60;99.90;;;;;;5033742;28;20041;-62
2022/11/13 07:43:34;;;;;;;19.15;14.20;;;6.60;99.90;;;;;;5017682;28;20045;-62
2022/11/13 07:46:00;;;;;;;19.35;15.52;;;6.70;99.90;;;;;;5033684;28;20608;-62
2022/11/13 07:48:26;;;;;;;19.85;16.08;;;6.70;99.90;;;;;;5033015;28;20048;-62
2022/11/13 07:50:52;;;;;;;21.63;15.68;;;6.70;99.90;;;;;;5033967;28;20029;-63
2022/11/13 07:53:19;;;;;;;27.60;20.02;;;6.80;99.90;;;;;;5033852;28;20172;-62
2022/11/13 07:55:46;;;;;;;21.73;16.48;;;6.80;99.90;;;;;;5033155;28;20060;-62
2022/11/13 07:58:12;;;;;;;28.90;19.13;;;6.90;99.90;;;;;;5034213;28;20059;-62
2022/11/13 08:00:38;;;;;;;44.78;29.45;;;6.90;99.90;;;;;;5033385;28;20041;-62
2022/11/13 08:03:11;;;;;;;32.85;22.38;;;7.00;99.90;;;;;;5032768;28;20041;-62
2022/11/13 08:05:37;;;;;;;78.40;47.67;;;7.00;99.90;;;;;;5028507;28;20041;-62
2022/11/13 08:08:03;;;;;;;29.77;20.67;;;7.10;99.90;;;;;;5030723;28;20086;-62
2022/11/13 08:10:29;;;;;;;31.45;18.88;;;7.10;99.90;;;;;;5024779;28;20045;-62
2022/11/13 08:13:03;;;;;;;29.67;19.85;;;7.10;99.90;;;;;;5009411;28;20040;-62
2022/11/13 08:15:30;;;;;;;66.13;40.87;;;7.20;99.90;;;;;;5043824;28;20051;-62
2022/11/13 08:17:57;;;;;;;35.17;23.85;;;7.20;99.90;;;;;;5020150;28;20053;-62
2022/11/13 08:20:24;;;;;;;26.45;19.65;;;7.30;99.90;;;;;;5058797;28;20585;-62
2022/11/13 08:22:51;;;;;;;24.63;18.95;;;7.40;99.90;;;;;;5029985;28;20045;-62
2022/11/13 08:25:17;;;;;;;29.38;22.10;;;7.50;99.90;;;;;;5013125;28;20102;-62
2022/11/13 08:27:43;;;;;;;20.20;15.05;;;7.50;99.90;;;;;;5029770;28;20059;-62
2022/11/13 08:30:10;;;;;;;25.58;19.70;;;7.50;99.90;;;;;;5022961;28;20496;-62
2022/11/13 08:32:35;;;;;;;38.28;27.88;;;7.60;99.90;;;;;;5027482;28;20424;-62
2022/11/13 08:35:01;;;;;;;27.85;23.50;;;7.60;99.90;;;;;;5045530;28;20119;-62
2022/11/13 08:37:27;;;;;;;20.70;16.52;;;7.70;99.90;;;;;;5027554;28;20132;-61
2022/11/13 08:39:53;;;;;;;29.02;23.15;;;7.80;99.90;;;;;;5015172;28;20045;-62
2022/11/13 08:42:19;;;;;;;24.35;17.33;;;7.80;99.90;;;;;;5033992;28;20128;-62
2022/11/13 08:44:44;;;;;;;35.25;25.58;;;7.90;99.90;;;;;;5051584;28;20099;-62
2022/11/13 08:47:10;;;;;;;22.98;16.63;;;8.00;99.90;;;;;;5052876;28;20037;-62
2022/11/13 08:49:35;;;;;;;16.85;12.63;;;8.00;99.90;;;;;;5071490;28;20044;-61
2022/11/13 08:52:01;;;;;;;19.13;13.48;;;8.10;99.90;;;;;;5033053;28;20037;-62
2022/11/13 08:54:27;;;;;;;20.27;14.77;;;8.20;99.90;;;;;;5034299;28;20375;-61
2022/11/13 08:56:52;;;;;;;20.67;13.85;;;8.30;99.90;;;;;;5017733;28;20124;-61
2022/11/13 08:59:18;;;;;;;16.13;12.48;;;8.30;99.90;;;;;;5029368;28;20037;-62
2022/11/13 09:01:44;;;;;;;17.02;12.40;;;8.40;99.90;;;;;;5025224;28;20033;-62
2022/11/13 09:04:09;;;;;;;17.60;13.18;;;8.40;99.90;;;;;;5032125;28;20044;-61
2022/11/13 09:06:35;;;;;;;18.90;13.05;;;8.50;99.90;;;;;;5051624;28;20037;-62
2022/11/13 09:09:03;;;;;;;18.35;13.43;;;8.60;99.90;;;;;;5033871;28;20516;-62
2022/11/13 09:11:29;;;;;;;15.18;11.82;;;8.60;99.90;;;;;;5051264;28;20029;-62
2022/11/13 09:13:55;;;;;;;14.52;12.02;;;8.60;99.90;;;;;;5033077;28;20048;-62
2022/11/13 09:16:20;;;;;;;17.67;12.93;;;8.70;99.90;;;;;;5065032;28;20062;-62
2022/11/13 09:18:50;;;;;;;16.67;12.65;;;8.80;99.90;;;;;;5051160;28;20515;-62
2022/11/13 09:21:16;;;;;;;17.33;12.63;;;8.80;99.90;;;;;;5034022;28;20038;-62
2022/11/13 09:23:41;;;;;;;16.08;11.63;;;8.90;99.90;;;;;;5052580;28;20040;-62
2022/11/13 09:26:07;;;;;;;14.20;12.20;;;9.00;99.90;;;;;;5030878;28;20107;-62
2022/11/13 09:28:34;;;;;;;15.50;12.65;;;9.10;99.90;;;;;;5011065;28;20044;-61
2022/11/13 09:31:06;;;;;;;15.20;11.75;;;9.20;99.90;;;;;;5035619;28;20504;-61
2022/11/13 09:33:33;;;;;;;14.82;11.60;;;9.30;99.90;;;;;;5051900;28;20041;-62
2022/11/13 09:35:58;;;;;;;16.70;12.63;;;9.40;99.90;;;;;;5053160;28;20033;-61
2022/11/13 09:38:24;;;;;;;15.70;11.45;;;9.50;99.90;;;;;;5032364;28;20115;-62
2022/11/13 09:40:54;;;;;;;14.40;11.52;;;9.70;99.90;;;;;;5034147;28;20063;-61
2022/11/13 09:43:55;;;;;;;13.68;9.68;;;9.80;99.90;;;;;;5032351;28;20041;-62
2022/11/13 09:46:39;;;;;;;12.45;9.80;;;10.00;99.90;;;;;;5032229;28;20067;-62
2022/11/13 09:49:34;;;;;;;11.88;9.60;;;10.10;99.90;;;;;;5033814;28;20048;-62
2022/11/13 09:52:04;;;;;;;14.32;9.45;;;10.30;99.90;;;;;;4997857;28;20056;-62
2022/11/13 09:54:30;;;;;;;12.75;9.35;;;10.40;99.90;;;;;;5035086;28;20137;-62
2022/11/13 09:57:24;;;;;;;10.98;8.52;;;10.40;99.90;;;;;;5031376;28;20080;-61
2022/11/13 09:59:53;;;;;;;11.45;8.63;;;10.60;99.90;;;;;;5040657;28;20037;-62
2022/11/13 10:02:46;;;;;;;12.15;8.68;;;10.60;99.90;;;;;;5034499;28;20044;-62
2022/11/13 10:05:30;;;;;;;12.43;9.00;;;10.70;99.90;;;;;;5035661;28;20041;-62
2022/11/13 10:08:10;;;;;;;12.88;8.70;;;10.80;99.90;;;;;;5035211;28;20369;-62
2022/11/13 10:10:47;;;;;;;10.80;8.57;;;10.90;99.90;;;;;;5017745;28;20071;-62
2022/11/13 10:13:24;;;;;;;11.68;7.78;;;11.00;99.90;;;;;;5019182;28;20052;-62
2022/11/13 10:15:54;;;;;;;11.50;8.70;;;11.10;99.90;;;;;;5051959;28;20037;-62
2022/11/13 10:18:29;;;;;;;11.20;8.20;;;11.10;99.90;;;;;;5030795;28;20052;-62
2022/11/13 10:21:14;;;;;;;10.07;7.57;;;11.30;99.90;;;;;;5037697;28;20037;-62
2022/11/13 10:23:42;;;;;;;11.40;7.28;;;11.40;99.90;;;;;;5034601;28;20068;-62
2022/11/13 10:26:19;;;;;;;10.63;8.20;;;11.40;99.90;;;;;;5052679;28;20083;-62
2022/11/13 10:28:46;;;;;;;9.95;7.45;;;11.60;99.90;;;;;;5017804;28;20051;-61
2022/11/13 10:31:13;;;;;;;12.40;7.47;;;11.60;99.90;;;;;;5031163;28;20049;-62
2022/11/13 10:33:39;;;;;;;9.95;8.32;;;11.60;99.90;;;;;;5049247;28;20501;-62
2022/11/13 10:36:19;;;;;;;10.15;7.20;;;11.80;99.90;;;;;;5034207;28;20094;-62
2022/11/13 11:12:15;;;;;;;10.10;7.88;;;12.30;99.90;;;;;;5030433;28;20076;-62
2022/11/13 11:14:56;;;;;;;18.23;13.18;;;12.40;99.90;;;;;;5017855;28;20044;-62
2022/11/13 11:17:33;;;;;;;12.73;9.40;;;12.50;99.90;;;;;;5017667;28;20043;-62
2022/11/13 11:20:20;;;;;;;10.75;7.88;;;12.50;99.90;;;;;;5033314;28;20052;-61
2022/11/13 11:22:58;;;;;;;10.38;7.00;;;12.50;99.90;;;;;;5033879;28;20558;-62
2022/11/13 11:25:39;;;;;;;17.83;13.63;;;12.50;99.90;;;;;;5052118;28;20485;-61
2022/11/13 11:28:26;;;;;;;17.77;13.20;;;12.40;99.90;;;;;;5029704;28;20046;-61
2022/11/13 11:31:04;;;;;;;10.55;7.32;;;12.50;99.90;;;;;;5042740;28;20052;-61
2022/11/13 11:33:36;;;;;;;10.50;6.78;;;12.60;99.90;;;;;;5050349;28;20105;-61
2022/11/13 11:36:22;;;;;;;10.80;7.28;;;12.60;99.90;;;;;;5028939;28;20039;-62
2022/11/13 11:38:59;;;;;;;11.48;7.07;;;12.70;99.90;;;;;;5016402;28;20056;-61
2022/11/13 11:41:35;;;;;;;10.95;7.85;;;12.80;99.90;;;;;;5021194;28;20045;-62
2022/11/13 11:44:07;;;;;;;13.93;8.68;;;12.90;99.90;;;;;;5023393;28;20485;-61
2022/11/13 11:46:35;;;;;;;13.40;8.82;;;12.90;99.90;;;;;;5045968;28;20123;-62
2022/11/13 11:49:00;;;;;;;15.32;10.10;;;12.90;99.90;;;;;;5006019;28;20068;-62
2022/11/13 11:51:33;;;;;;;11.25;7.30;;;12.90;99.90;;;;;;5024272;28;20501;-62
2022/11/13 11:54:12;;;;;;;8.98;6.75;;;12.80;99.90;;;;;;5045848;28;20397;-63
2022/11/13 11:56:45;;;;;;;7.70;6.15;;;12.80;99.90;;;;;;5028114;28;20506;-62
2022/11/13 11:59:14;;;;;;;9.25;6.55;;;12.70;99.90;;;;;;5026073;28;20048;-62
2022/11/13 12:01:52;;;;;;;8.55;6.10;;;12.70;99.90;;;;;;5010554;28;20044;-63
2022/11/13 12:04:58;;;;;;;9.10;6.68;;;12.60;99.90;;;;;;5034428;28;20398;-63
2022/11/13 12:07:56;;;;;;;10.60;7.25;;;12.60;99.90;;;;;;5031130;28;20374;-63
2022/11/13 12:11:09;;;;;;;9.68;7.65;;;12.50;99.90;;;;;;5018106;28;20046;-63
2022/11/13 12:13:57;;;;;;;12.30;8.02;;;12.60;99.90;;;;;;4932214;29;20070;-63
2022/11/13 12:16:34;;;;;;;9.82;7.45;;;12.60;99.90;;;;;;5025475;28;20053;-63
2022/11/13 12:19:42;;;;;;;10.98;8.02;;;12.60;99.90;;;;;;5034329;28;20049;-62
2022/11/13 12:22:28;;;;;;;10.45;8.20;;;12.70;99.90;;;;;;4973004;28;20044;-63
2022/11/13 12:25:00;;;;;;;11.65;9.38;;;12.70;99.90;;;;;;5052117;28;20048;-63
2022/11/13 12:27:49;;;;;;;10.75;8.73;;;12.70;99.90;;;;;;5018170;28;20543;-62
2022/11/13 12:30:26;;;;;;;12.05;9.25;;;12.80;99.90;;;;;;5051647;28;20143;-62
2022/11/13 12:32:55;;;;;;;12.18;9.65;;;12.80;99.90;;;;;;5014789;28;20061;-62
2022/11/13 12:35:23;;;;;;;13.48;8.88;;;12.80;99.90;;;;;;5033756;28;20053;-62
2022/11/13 12:38:02;;;;;;;11.75;8.57;;;12.80;99.90;;;;;;5017018;28;20049;-63
2022/11/13 12:40:41;;;;;;;14.38;8.23;;;12.80;99.90;;;;;;5032312;28;20135;-63
2022/11/13 12:43:28;;;;;;;10.88;8.48;;;12.90;99.90;;;;;;5034725;28;20405;-62
2022/11/13 12:45:59;;;;;;;9.98;7.97;;;12.90;99.90;;;;;;5031107;28;20474;-63
2022/11/13 12:48:40;;;;;;;12.95;10.77;;;12.90;99.90;;;;;;5037323;28;20064;-62
2022/11/13 12:51:09;;;;;;;12.32;9.75;;;12.90;99.90;;;;;;5015014;28;20072;-63
2022/11/13 12:53:55;;;;;;;11.75;7.72;;;12.90;99.90;;;;;;5048309;28;20609;-63
2022/11/13 12:56:23;;;;;;;9.02;7.55;;;12.90;99.90;;;;;;5033806;28;20037;-63
2022/11/13 12:58:55;;;;;;;10.63;8.05;;;12.90;99.90;;;;;;5027946;28;20588;-63
2022/11/13 13:01:22;;;;;;;10.93;8.57;;;12.90;99.90;;;;;;5034266;28;20072;-63
2022/11/13 13:04:25;;;;;;;9.80;7.80;;;12.80;99.90;;;;;;5051119;28;20512;-63
2022/11/13 13:06:59;;;;;;;9.90;8.27;;;12.80;99.90;;;;;;5033789;28;20048;-63
2022/11/13 13:09:43;;;;;;;12.32;8.23;;;12.70;99.90;;;;;;5031592;28;20041;-63
2022/11/13 13:12:48;;;;;;;11.63;8.18;;;12.70;99.90;;;;;;5013158;28;20111;-62
2022/11/13 13:15:37;;;;;;;11.30;8.88;;;12.60;99.90;;;;;;5013664;28;20053;-62
2022/11/13 13:18:24;;;;;;;11.68;8.25;;;12.60;99.90;;;;;;5015475;28;20049;-62
2022/11/13 13:20:55;;;;;;;11.95;8.90;;;12.50;99.90;;;;;;5029739;28;20037;-62
2022/11/13 13:23:33;;;;;;;12.05;9.30;;;12.40;99.90;;;;;;5013760;28;20060;-62